Terminal Aerodrome Forecast
Issued by NWS Los Angeles, CA

Home | Current Version | Previous Version | Text Only | Print | Product List | Glossary On
Versions: 1 2 3 4 5 6 7 8 9 10 11 12 13 14 15 16 17 18 19 20 21 22 23
000
FTUS46 KLOX 310300 AAA
TAFSMX
TAF AMD
KSMX 310344Z 3104/3124 28004KT P6SM BKN006
     FM310600 31007KT 3SM BR BKN004
     FM310800 30005KT 2SM BR OVC003
     FM311100 VRB03KT 1 1/2SM BR OVC001
     FM311600 VRB03KT 5SM BR SCT006
     FM311800 31006KT P6SM SCT250
     FM312100 31011KT P6SM SKC=

USA.gov is the U.S. government's official web portal to all federal, state and local government web resources and services.